sensor_id;sensor_type;location;lat;lon;timestamp;temperature;humidity
30234;DHT22;17046;52.074;4.748;2023-03-29T00:01:28;6.10;99.90
30234;DHT22;17046;52.074;4.748;2023-03-29T00:03:56;6.10;99.90
30234;DHT22;17046;52.074;4.748;2023-03-29T00:06:22;6.10;99.90
30234;DHT22;17046;52.074;4.748;2023-03-29T00:08:48;6.10;99.90
30234;DHT22;17046;52.074;4.748;2023-03-29T00:11:19;6.10;99.90
30234;DHT22;17046;52.074;4.748;2023-03-29T00:13:47;6.20;99.90
30234;DHT22;17046;52.074;4.748;2023-03-29T00:16:12;6.20;99.90
30234;DHT22;17046;52.074;4.748;2023-03-29T00:18:38;6.30;99.90
30234;DHT22;17046;52.074;4.748;2023-03-29T00:21:04;6.30;99.90
30234;DHT22;17046;52.074;4.748;2023-03-29T00:23:30;6.40;99.90
30234;DHT22;17046;52.074;4.748;2023-03-29T00:25:56;6.40;99.90
30234;DHT22;17046;52.074;4.748;2023-03-29T00:28:22;6.50;99.90
30234;DHT22;17046;52.074;4.748;2023-03-29T00:31:10;6.50;99.90
30234;DHT22;17046;52.074;4.748;2023-03-29T00:33:40;6.50;99.90
30234;DHT22;17046;52.074;4.748;2023-03-29T00:36:06;6.50;99.90
30234;DHT22;17046;52.074;4.748;2023-03-29T00:38:33;6.50;99.90
30234;DHT22;17046;52.074;4.748;2023-03-29T00:40:59;6.60;99.90
30234;DHT22;17046;52.074;4.748;2023-03-29T00:43:24;6.70;99.90
30234;DHT22;17046;52.074;4.748;2023-03-29T00:45:50;6.70;99.90
30234;DHT22;17046;52.074;4.748;2023-03-29T00:48:18;6.80;99.90
30234;DHT22;17046;52.074;4.748;2023-03-29T00:50:50;6.80;99.90
30234;DHT22;17046;52.074;4.748;2023-03-29T00:53:22;6.90;99.90
30234;DHT22;17046;52.074;4.748;2023-03-29T00:58:20;6.90;99.90
30234;DHT22;17046;52.074;4.748;2023-03-29T01:00:53;6.90;98.40
30234;DHT22;17046;52.074;4.748;2023-03-29T01:03:23;7.00;96.80
30234;DHT22;17046;52.074;4.748;2023-03-29T01:05:56;7.00;92.30
30234;DHT22;17046;52.074;4.748;2023-03-29T01:08:34;7.00;87.90
30234;DHT22;17046;52.074;4.748;2023-03-29T01:11:05;7.10;87.20
30234;DHT22;17046;52.074;4.748;2023-03-29T01:13:42;7.10;82.80
30234;DHT22;17046;52.074;4.748;2023-03-29T01:16:10;7.10;83.90
30234;DHT22;17046;52.074;4.748;2023-03-29T01:18:37;7.10;86.40
30234;DHT22;17046;52.074;4.748;2023-03-29T01:26:56;7.10;89.50
30234;DHT22;17046;52.074;4.748;2023-03-29T01:32:07;7.20;87.00
30234;DHT22;17046;52.074;4.748;2023-03-29T01:34:41;7.10;91.90
30234;DHT22;17046;52.074;4.748;2023-03-29T01:37:13;7.10;93.90
30234;DHT22;17046;52.074;4.748;2023-03-29T01:39:42;7.20;93.40
30234;DHT22;17046;52.074;4.748;2023-03-29T01:47:29;7.20;93.80
30234;DHT22;17046;52.074;4.748;2023-03-29T01:52:58;7.30;91.70
30234;DHT22;17046;52.074;4.748;2023-03-29T01:55:30;7.30;93.70
30234;DHT22;17046;52.074;4.748;2023-03-29T01:57:58;7.30;93.80
30234;DHT22;17046;52.074;4.748;2023-03-29T02:00:25;7.30;97.40
30234;DHT22;17046;52.074;4.748;2023-03-29T02:02:56;7.30;99.40
30234;DHT22;17046;52.074;4.748;2023-03-29T02:05:25;7.20;99.90
30234;DHT22;17046;52.074;4.748;2023-03-29T02:07:53;7.30;99.90
30234;DHT22;17046;52.074;4.748;2023-03-29T02:10:21;7.20;99.90
30234;DHT22;17046;52.074;4.748;2023-03-29T02:12:47;7.30;98.80
30234;DHT22;17046;52.074;4.748;2023-03-29T02:15:16;7.30;99.90
30234;DHT22;17046;52.074;4.748;2023-03-29T02:17:46;7.30;99.90
30234;DHT22;17046;52.074;4.748;2023-03-29T02:20:19;7.30;99.90
30234;DHT22;17046;52.074;4.748;2023-03-29T02:25:21;7.30;97.50
30234;DHT22;17046;52.074;4.748;2023-03-29T02:27:49;7.30;98.90
30234;DHT22;17046;52.074;4.748;2023-03-29T02:30:16;7.30;97.20
30234;DHT22;17046;52.074;4.748;2023-03-29T02:35:35;7.30;96.90
30234;DHT22;17046;52.074;4.748;2023-03-29T02:38:05;7.30;94.20
30234;DHT22;17046;52.074;4.748;2023-03-29T02:40:32;7.30;96.70
30234;DHT22;17046;52.074;4.748;2023-03-29T02:43:00;7.40;92.80
30234;DHT22;17046;52.074;4.748;2023-03-29T02:45:27;7.40;92.10
30234;DHT22;17046;52.074;4.748;2023-03-29T02:48:02;7.40;90.00
30234;DHT22;17046;52.074;4.748;2023-03-29T02:50:36;7.40;90.30
30234;DHT22;17046;52.074;4.748;2023-03-29T02:53:06;7.40;91.00
30234;DHT22;17046;52.074;4.748;2023-03-29T02:55:34;7.40;91.30
30234;DHT22;17046;52.074;4.748;2023-03-29T02:58:00;7.40;88.30
30234;DHT22;17046;52.074;4.748;2023-03-29T03:00:36;7.40;84.50
30234;DHT22;17046;52.074;4.748;2023-03-29T03:03:04;7.40;77.60
30234;DHT22;17046;52.074;4.748;2023-03-29T03:05:30;7.50;78.50
30234;DHT22;17046;52.074;4.748;2023-03-29T03:07:56;7.50;79.50
30234;DHT22;17046;52.074;4.748;2023-03-29T03:10:22;7.50;78.50
30234;DHT22;17046;52.074;4.748;2023-03-29T03:12:48;7.60;66.80
30234;DHT22;17046;52.074;4.748;2023-03-29T03:15:14;7.60;79.40
30234;DHT22;17046;52.074;4.748;2023-03-29T03:17:39;7.60;77.80
30234;DHT22;17046;52.074;4.748;2023-03-29T03:20:09;7.60;79.40
30234;DHT22;17046;52.074;4.748;2023-03-29T03:22:45;7.60;78.70
30234;DHT22;17046;52.074;4.748;2023-03-29T03:25:18;7.60;80.70
30234;DHT22;17046;52.074;4.748;2023-03-29T03:27:46;7.60;82.70
30234;DHT22;17046;52.074;4.748;2023-03-29T03:30:12;7.60;83.10
30234;DHT22;17046;52.074;4.748;2023-03-29T03:32:37;7.60;89.10
30234;DHT22;17046;52.074;4.748;2023-03-29T03:35:04;7.60;85.10
30234;DHT22;17046;52.074;4.748;2023-03-29T03:37:30;7.60;83.00
30234;DHT22;17046;52.074;4.748;2023-03-29T03:39:56;7.60;85.60
30234;DHT22;17046;52.074;4.748;2023-03-29T03:42:26;7.60;88.40
30234;DHT22;17046;52.074;4.748;2023-03-29T03:44:52;7.60;89.50
30234;DHT22;17046;52.074;4.748;2023-03-29T03:47:18;7.60;90.40
30234;DHT22;17046;52.074;4.748;2023-03-29T03:49:44;7.60;86.40
30234;DHT22;17046;52.074;4.748;2023-03-29T03:52:10;7.60;91.00
30234;DHT22;17046;52.074;4.748;2023-03-29T03:54:36;7.70;93.70
30234;DHT22;17046;52.074;4.748;2023-03-29T03:57:02;7.70;92.40
30234;DHT22;17046;52.074;4.748;2023-03-29T03:59:28;7.70;92.10
30234;DHT22;17046;52.074;4.748;2023-03-29T04:01:53;7.80;92.20
30234;DHT22;17046;52.074;4.748;2023-03-29T04:04:19;7.80;91.30
30234;DHT22;17046;52.074;4.748;2023-03-29T04:06:45;7.80;90.90
30234;DHT22;17046;52.074;4.748;2023-03-29T04:09:10;7.80;94.40
30234;DHT22;17046;52.074;4.748;2023-03-29T04:11:37;7.80;95.10
30234;DHT22;17046;52.074;4.748;2023-03-29T04:14:03;7.80;96.40
30234;DHT22;17046;52.074;4.748;2023-03-29T04:16:29;7.80;98.90
30234;DHT22;17046;52.074;4.748;2023-03-29T04:18:55;7.80;98.40
30234;DHT22;17046;52.074;4.748;2023-03-29T04:21:23;7.80;99.90
30234;DHT22;17046;52.074;4.748;2023-03-29T04:23:51;7.80;98.50
30234;DHT22;17046;52.074;4.748;2023-03-29T04:26:20;7.80;98.80
30234;DHT22;17046;52.074;4.748;2023-03-29T04:28:46;7.80;99.90
30234;DHT22;17046;52.074;4.748;2023-03-29T04:31:14;7.70;99.90
30234;DHT22;17046;52.074;4.748;2023-03-29T04:33:39;7.80;99.90
30234;DHT22;17046;52.074;4.748;2023-03-29T04:36:06;7.80;99.90
30234;DHT22;17046;52.074;4.748;2023-03-29T04:38:32;7.90;99.90
30234;DHT22;17046;52.074;4.748;2023-03-29T04:41:01;7.80;99.90
30234;DHT22;17046;52.074;4.748;2023-03-29T04:43:29;7.80;99.90
30234;DHT22;17046;52.074;4.748;2023-03-29T04:45:55;7.80;99.90
30234;DHT22;17046;52.074;4.748;2023-03-29T04:48:22;7.80;99.90
30234;DHT22;17046;52.074;4.748;2023-03-29T04:50:47;7.80;99.90
30234;DHT22;17046;52.074;4.748;2023-03-29T04:53:16;7.80;99.90
30234;DHT22;17046;52.074;4.748;2023-03-29T04:55:42;7.90;99.90
30234;DHT22;17046;52.074;4.748;2023-03-29T04:58:07;7.90;99.90
30234;DHT22;17046;52.074;4.748;2023-03-29T05:00:33;7.90;99.90
30234;DHT22;17046;52.074;4.748;2023-03-29T05:03:02;7.90;99.90
30234;DHT22;17046;52.074;4.748;2023-03-29T05:05:29;7.90;99.90
30234;DHT22;17046;52.074;4.748;2023-03-29T05:07:54;7.90;99.90
30234;DHT22;17046;52.074;4.748;2023-03-29T05:10:20;7.90;99.90
30234;DHT22;17046;52.074;4.748;2023-03-29T05:12:45;7.90;99.90
30234;DHT22;17046;52.074;4.748;2023-03-29T05:15:11;7.90;99.90
30234;DHT22;17046;52.074;4.748;2023-03-29T05:17:37;8.00;99.90
30234;DHT22;17046;52.074;4.748;2023-03-29T05:20:04;8.00;99.90
30234;DHT22;17046;52.074;4.748;2023-03-29T05:22:39;8.00;99.90
30234;DHT22;17046;52.074;4.748;2023-03-29T05:25:05;7.90;99.90
30234;DHT22;17046;52.074;4.748;2023-03-29T05:27:31;8.00;99.90
30234;DHT22;17046;52.074;4.748;2023-03-29T05:29:58;8.00;99.90
30234;DHT22;17046;52.074;4.748;2023-03-29T05:32:23;8.00;99.90
30234;DHT22;17046;52.074;4.748;2023-03-29T05:34:52;8.10;99.90
30234;DHT22;17046;52.074;4.748;2023-03-29T05:37:18;8.10;99.90
30234;DHT22;17046;52.074;4.748;2023-03-29T05:39:44;8.10;99.90
30234;DHT22;17046;52.074;4.748;2023-03-29T05:42:10;8.10;99.90
30234;DHT22;17046;52.074;4.748;2023-03-29T05:44:38;8.20;99.90
30234;DHT22;17046;52.074;4.748;2023-03-29T05:47:05;8.20;99.90
30234;DHT22;17046;52.074;4.748;2023-03-29T05:49:31;8.20;99.90
30234;DHT22;17046;52.074;4.748;2023-03-29T05:51:57;8.20;99.90
30234;DHT22;17046;52.074;4.748;2023-03-29T05:54:23;8.30;99.90
30234;DHT22;17046;52.074;4.748;2023-03-29T05:56:49;8.30;99.90
30234;DHT22;17046;52.074;4.748;2023-03-29T05:59:15;8.30;99.90
30234;DHT22;17046;52.074;4.748;2023-03-29T06:01:42;8.40;99.90
30234;DHT22;17046;52.074;4.748;2023-03-29T06:04:12;8.40;99.90
30234;DHT22;17046;52.074;4.748;2023-03-29T06:06:37;8.40;99.90
30234;DHT22;17046;52.074;4.748;2023-03-29T06:09:03;8.50;99.90
30234;DHT22;17046;52.074;4.748;2023-03-29T06:11:30;8.50;99.90
30234;DHT22;17046;52.074;4.748;2023-03-29T06:13:56;8.50;99.90
30234;DHT22;17046;52.074;4.748;2023-03-29T06:16:22;8.60;99.90
30234;DHT22;17046;52.074;4.748;2023-03-29T06:18:47;8.50;99.90
30234;DHT22;17046;52.074;4.748;2023-03-29T06:21:13;8.60;99.90
30234;DHT22;17046;52.074;4.748;2023-03-29T06:23:39;8.60;99.90
30234;DHT22;17046;52.074;4.748;2023-03-29T06:26:06;8.60;99.90
30234;DHT22;17046;52.074;4.748;2023-03-29T06:28:31;8.70;99.90
30234;DHT22;17046;52.074;4.748;2023-03-29T06:30:57;8.70;99.90
30234;DHT22;17046;52.074;4.748;2023-03-29T06:33:27;8.80;99.90
30234;DHT22;17046;52.074;4.748;2023-03-29T06:35:53;8.80;99.90
30234;DHT22;17046;52.074;4.748;2023-03-29T06:38:19;8.80;99.90
30234;DHT22;17046;52.074;4.748;2023-03-29T06:40:45;8.90;99.90
30234;DHT22;17046;52.074;4.748;2023-03-29T06:43:12;8.90;99.90
30234;DHT22;17046;52.074;4.748;2023-03-29T06:45:38;8.90;99.90
30234;DHT22;17046;52.074;4.748;2023-03-29T06:48:05;8.90;99.90
30234;DHT22;17046;52.074;4.748;2023-03-29T06:50:32;9.00;99.90
30234;DHT22;17046;52.074;4.748;2023-03-29T06:52:58;9.10;99.90
30234;DHT22;17046;52.074;4.748;2023-03-29T06:55:24;9.00;99.90
30234;DHT22;17046;52.074;4.748;2023-03-29T06:57:52;9.10;99.90
30234;DHT22;17046;52.074;4.748;2023-03-29T07:00:18;9.10;99.90
30234;DHT22;17046;52.074;4.748;2023-03-29T07:02:50;9.20;99.90
30234;DHT22;17046;52.074;4.748;2023-03-29T07:05:16;9.20;99.90
30234;DHT22;17046;52.074;4.748;2023-03-29T07:07:43;9.20;99.90
30234;DHT22;17046;52.074;4.748;2023-03-29T07:10:27;9.40;99.90
30234;DHT22;17046;52.074;4.748;2023-03-29T07:12:56;9.30;99.90
30234;DHT22;17046;52.074;4.748;2023-03-29T07:17:48;9.50;99.90
30234;DHT22;17046;52.074;4.748;2023-03-29T07:20:14;9.60;99.90
30234;DHT22;17046;52.074;4.748;2023-03-29T07:22:41;9.60;99.90
30234;DHT22;17046;52.074;4.748;2023-03-29T07:25:12;9.60;99.90
30234;DHT22;17046;52.074;4.748;2023-03-29T07:27:40;9.60;99.90
30234;DHT22;17046;52.074;4.748;2023-03-29T07:30:13;9.60;99.90
30234;DHT22;17046;52.074;4.748;2023-03-29T07:32:42;9.60;99.90
30234;DHT22;17046;52.074;4.748;2023-03-29T07:35:09;9.60;99.90
30234;DHT22;17046;52.074;4.748;2023-03-29T07:37:36;9.70;99.90
30234;DHT22;17046;52.074;4.748;2023-03-29T07:40:04;9.70;99.90
30234;DHT22;17046;52.074;4.748;2023-03-29T07:42:35;9.70;99.90
30234;DHT22;17046;52.074;4.748;2023-03-29T07:45:02;9.70;99.90
30234;DHT22;17046;52.074;4.748;2023-03-29T07:47:28;9.80;99.90
30234;DHT22;17046;52.074;4.748;2023-03-29T07:49:54;9.80;99.90
30234;DHT22;17046;52.074;4.748;2023-03-29T07:52:20;9.90;99.90
30234;DHT22;17046;52.074;4.748;2023-03-29T07:54:46;10.00;99.90
30234;DHT22;17046;52.074;4.748;2023-03-29T07:59:38;10.20;99.90
30234;DHT22;17046;52.074;4.748;2023-03-29T08:02:04;10.40;99.90
30234;DHT22;17046;52.074;4.748;2023-03-29T08:04:29;10.40;99.90
30234;DHT22;17046;52.074;4.748;2023-03-29T08:06:55;10.60;99.90
30234;DHT22;17046;52.074;4.748;2023-03-29T08:09:21;10.70;99.90
30234;DHT22;17046;52.074;4.748;2023-03-29T08:11:46;10.70;99.90
30234;DHT22;17046;52.074;4.748;2023-03-29T08:14:12;10.80;99.90
30234;DHT22;17046;52.074;4.748;2023-03-29T08:16:37;10.90;99.90
30234;DHT22;17046;52.074;4.748;2023-03-29T08:19:03;11.00;96.20
30234;DHT22;17046;52.074;4.748;2023-03-29T08:21:28;11.00;97.00
30234;DHT22;17046;52.074;4.748;2023-03-29T08:23:54;11.00;97.20
30234;DHT22;17046;52.074;4.748;2023-03-29T08:26:20;10.90;99.90
30234;DHT22;17046;52.074;4.748;2023-03-29T08:28:46;11.00;99.90
30234;DHT22;17046;52.074;4.748;2023-03-29T08:31:12;11.20;99.90
30234;DHT22;17046;52.074;4.748;2023-03-29T08:33:40;11.20;98.00
30234;DHT22;17046;52.074;4.748;2023-03-29T08:36:11;11.30;99.90
30234;DHT22;17046;52.074;4.748;2023-03-29T08:38:40;11.30;99.90
30234;DHT22;17046;52.074;4.748;2023-03-29T08:44:05;11.80;99.90
30234;DHT22;17046;52.074;4.748;2023-03-29T08:46:40;11.50;99.90
30234;DHT22;17046;52.074;4.748;2023-03-29T08:49:10;11.60;99.90
30234;DHT22;17046;52.074;4.748;2023-03-29T08:51:46;11.70;99.90
30234;DHT22;17046;52.074;4.748;2023-03-29T08:54:17;11.80;99.80
30234;DHT22;17046;52.074;4.748;2023-03-29T08:56:45;11.90;92.60
30234;DHT22;17046;52.074;4.748;2023-03-29T08:59:31;12.00;93.40
30234;DHT22;17046;52.074;4.748;2023-03-29T09:01:58;12.00;94.40
30234;DHT22;17046;52.074;4.748;2023-03-29T09:04:33;11.90;99.90
30234;DHT22;17046;52.074;4.748;2023-03-29T09:07:02;11.80;99.90
30234;DHT22;17046;52.074;4.748;2023-03-29T09:09:31;11.80;99.90
30234;DHT22;17046;52.074;4.748;2023-03-29T09:12:34;12.00;99.90
30234;DHT22;17046;52.074;4.748;2023-03-29T09:25:55;12.90;99.90
30234;DHT22;17046;52.074;4.748;2023-03-29T09:28:36;13.10;54.00
30234;DHT22;17046;52.074;4.748;2023-03-29T09:31:13;13.30;48.20
30234;DHT22;17046;52.074;4.748;2023-03-29T09:33:45;13.20;20.90
30234;DHT22;17046;52.074;4.748;2023-03-29T09:36:22;13.20;14.80
30234;DHT22;17046;52.074;4.748;2023-03-29T09:38:48;12.90;50.00
30234;DHT22;17046;52.074;4.748;2023-03-29T09:44:00;13.00;26.60
30234;DHT22;17046;52.074;4.748;2023-03-29T09:46:28;13.10;24.60
30234;DHT22;17046;52.074;4.748;2023-03-29T09:48:55;13.10;27.80
30234;DHT22;17046;52.074;4.748;2023-03-29T09:51:24;13.10;20.90
30234;DHT22;17046;52.074;4.748;2023-03-29T09:53:51;13.30;14.70
30234;DHT22;17046;52.074;4.748;2023-03-29T09:56:17;13.70;2.70
30234;DHT22;17046;52.074;4.748;2023-03-29T09:58:43;13.50;1.00
30234;DHT22;17046;52.074;4.748;2023-03-29T10:01:13;13.60;1.00
30234;DHT22;17046;52.074;4.748;2023-03-29T10:03:40;13.50;1.00
30234;DHT22;17046;52.074;4.748;2023-03-29T10:06:10;13.30;17.10
30234;DHT22;17046;52.074;4.748;2023-03-29T10:08:39;13.10;49.70
30234;DHT22;17046;52.074;4.748;2023-03-29T10:11:11;13.10;54.90
30234;DHT22;17046;52.074;4.748;2023-03-29T10:13:43;13.10;52.70
30234;DHT22;17046;52.074;4.748;2023-03-29T10:16:18;13.30;77.60
30234;DHT22;17046;52.074;4.748;2023-03-29T10:18:44;13.20;83.60
30234;DHT22;17046;52.074;4.748;2023-03-29T10:21:15;13.10;69.70
30234;DHT22;17046;52.074;4.748;2023-03-29T10:23:41;13.20;72.70
30234;DHT22;17046;52.074;4.748;2023-03-29T10:26:22;13.30;73.70
30234;DHT22;17046;52.074;4.748;2023-03-29T10:28:50;13.40;38.00
30234;DHT22;17046;52.074;4.748;2023-03-29T10:31:19;13.30;45.00
30234;DHT22;17046;52.074;4.748;2023-03-29T10:33:56;13.40;53.80
30234;DHT22;17046;52.074;4.748;2023-03-29T10:36:25;13.50;47.90
30234;DHT22;17046;52.074;4.748;2023-03-29T10:38:52;13.60;33.70
30234;DHT22;17046;52.074;4.748;2023-03-29T10:41:19;13.40;45.50
30234;DHT22;17046;52.074;4.748;2023-03-29T10:43:47;13.30;85.80
30234;DHT22;17046;52.074;4.748;2023-03-29T10:48:49;12.80;99.90
30234;DHT22;17046;52.074;4.748;2023-03-29T10:51:16;12.90;99.90
30234;DHT22;17046;52.074;4.748;2023-03-29T10:53:42;13.00;99.90
30234;DHT22;17046;52.074;4.748;2023-03-29T11:12:23;13.20;98.30
30234;DHT22;17046;52.074;4.748;2023-03-29T11:15:02;12.90;99.90
30234;DHT22;17046;52.074;4.748;2023-03-29T11:20:43;13.00;99.90
30234;DHT22;17046;52.074;4.748;2023-03-29T11:23:28;13.20;99.90
30234;DHT22;17046;52.074;4.748;2023-03-29T11:29:28;13.40;99.90
30234;DHT22;17046;52.074;4.748;2023-03-29T11:32:14;13.50;99.90
30234;DHT22;17046;52.074;4.748;2023-03-29T11:43:17;14.20;9.70
30234;DHT22;17046;52.074;4.748;2023-03-29T11:45:49;14.20;8.70
30234;DHT22;17046;52.074;4.748;2023-03-29T11:48:20;13.70;28.90
30234;DHT22;17046;52.074;4.748;2023-03-29T11:51:11;13.30;72.70
30234;DHT22;17046;52.074;4.748;2023-03-29T11:53:45;12.90;99.90
30234;DHT22;17046;52.074;4.748;2023-03-29T11:56:21;12.70;99.90
30234;DHT22;17046;52.074;4.748;2023-03-29T11:58:54;12.50;99.90
30234;DHT22;17046;52.074;4.748;2023-03-29T12:03:58;12.30;99.90
30234;DHT22;17046;52.074;4.748;2023-03-29T12:06:30;12.10;99.90
30234;DHT22;17046;52.074;4.748;2023-03-29T12:09:11;12.10;99.90
30234;DHT22;17046;52.074;4.748;2023-03-29T12:11:44;12.20;99.90
30234;DHT22;17046;52.074;4.748;2023-03-29T12:15:02;12.30;99.90
30234;DHT22;17046;52.074;4.748;2023-03-29T12:17:38;12.30;99.90
30234;DHT22;17046;52.074;4.748;2023-03-29T12:20:20;12.20;99.90
30234;DHT22;17046;52.074;4.748;2023-03-29T12:22:48;12.30;99.90
30234;DHT22;17046;52.074;4.748;2023-03-29T12:25:18;12.40;99.90
30234;DHT22;17046;52.074;4.748;2023-03-29T12:31:01;12.50;99.90
30234;DHT22;17046;52.074;4.748;2023-03-29T12:33:36;12.50;99.90
30234;DHT22;17046;52.074;4.748;2023-03-29T12:38:37;12.60;99.90
30234;DHT22;17046;52.074;4.748;2023-03-29T12:41:13;12.70;99.90
30234;DHT22;17046;52.074;4.748;2023-03-29T12:43:40;12.80;99.90
30234;DHT22;17046;52.074;4.748;2023-03-29T12:46:23;12.90;99.90
30234;DHT22;17046;52.074;4.748;2023-03-29T12:48:59;13.00;99.90
30234;DHT22;17046;52.074;4.748;2023-03-29T12:51:31;13.10;99.90
30234;DHT22;17046;52.074;4.748;2023-03-29T12:54:13;13.30;98.10
30234;DHT22;17046;52.074;4.748;2023-03-29T13:07:27;14.60;1.00
30234;DHT22;17046;52.074;4.748;2023-03-29T13:09:58;14.70;1.00
30234;DHT22;17046;52.074;4.748;2023-03-29T13:12:39;14.40;1.00
30234;DHT22;17046;52.074;4.748;2023-03-29T13:15:21;14.40;1.00
30234;DHT22;17046;52.074;4.748;2023-03-29T13:20:36;14.40;1.00
30234;DHT22;17046;52.074;4.748;2023-03-29T13:39:58;14.80;1.00
30234;DHT22;17046;52.074;4.748;2023-03-29T13:44:50;14.70;1.00
30234;DHT22;17046;52.074;4.748;2023-03-29T13:50:11;14.70;1.00
30234;DHT22;17046;52.074;4.748;2023-03-29T13:53:28;14.80;1.00
30234;DHT22;17046;52.074;4.748;2023-03-29T13:56:01;14.80;1.00
30234;DHT22;17046;52.074;4.748;2023-03-29T13:58:46;14.80;1.00
30234;DHT22;17046;52.074;4.748;2023-03-29T14:01:22;14.90;1.00
30234;DHT22;17046;52.074;4.748;2023-03-29T14:03:50;15.00;1.00
30234;DHT22;17046;52.074;4.748;2023-03-29T14:06:22;14.90;1.00
30234;DHT22;17046;52.074;4.748;2023-03-29T14:08:51;14.90;1.00
30234;DHT22;17046;52.074;4.748;2023-03-29T14:11:29;15.00;1.00
30234;DHT22;17046;52.074;4.748;2023-03-29T14:14:00;15.10;1.00
30234;DHT22;17046;52.074;4.748;2023-03-29T14:16:29;15.10;1.00
30234;DHT22;17046;52.074;4.748;2023-03-29T14:19:02;15.20;1.00
30234;DHT22;17046;52.074;4.748;2023-03-29T14:21:28;15.50;1.00
30234;DHT22;17046;52.074;4.748;2023-03-29T14:23:59;15.60;1.00
30234;DHT22;17046;52.074;4.748;2023-03-29T14:26:30;15.50;1.00
30234;DHT22;17046;52.074;4.748;2023-03-29T14:28:57;15.70;1.00
30234;DHT22;17046;52.074;4.748;2023-03-29T14:31:30;15.70;1.00
30234;DHT22;17046;52.074;4.748;2023-03-29T14:33:58;15.70;1.00
30234;DHT22;17046;52.074;4.748;2023-03-29T14:36:25;15.40;1.00
30234;DHT22;17046;52.074;4.748;2023-03-29T14:38:54;15.50;1.00
30234;DHT22;17046;52.074;4.748;2023-03-29T14:41:23;15.70;1.00
30234;DHT22;17046;52.074;4.748;2023-03-29T14:43:49;15.80;1.00
30234;DHT22;17046;52.074;4.748;2023-03-29T14:46:19;15.90;1.00
30234;DHT22;17046;52.074;4.748;2023-03-29T14:48:45;16.00;1.00
30234;DHT22;17046;52.074;4.748;2023-03-29T14:51:11;15.90;1.00
30234;DHT22;17046;52.074;4.748;2023-03-29T14:53:38;15.80;1.00
30234;DHT22;17046;52.074;4.748;2023-03-29T14:56:05;15.80;1.00
30234;DHT22;17046;52.074;4.748;2023-03-29T14:58:33;15.90;1.00
30234;DHT22;17046;52.074;4.748;2023-03-29T15:01:12;16.00;1.00
30234;DHT22;17046;52.074;4.748;2023-03-29T15:04:06;16.20;1.00
30234;DHT22;17046;52.074;4.748;2023-03-29T15:06:38;16.20;1.00
30234;DHT22;17046;52.074;4.748;2023-03-29T15:09:05;16.00;1.00
30234;DHT22;17046;52.074;4.748;2023-03-29T15:11:32;15.70;1.00
30234;DHT22;17046;52.074;4.748;2023-03-29T15:14:15;15.70;1.00
30234;DHT22;17046;52.074;4.748;2023-03-29T15:16:42;15.70;1.00
30234;DHT22;17046;52.074;4.748;2023-03-29T15:19:15;15.70;1.00
30234;DHT22;17046;52.074;4.748;2023-03-29T15:21:42;15.60;1.00
30234;DHT22;17046;52.074;4.748;2023-03-29T15:24:41;15.60;1.00
30234;DHT22;17046;52.074;4.748;2023-03-29T15:27:15;15.60;1.00
30234;DHT22;17046;52.074;4.748;2023-03-29T15:29:42;15.50;1.00
30234;DHT22;17046;52.074;4.748;2023-03-29T15:32:35;15.20;1.00
30234;DHT22;17046;52.074;4.748;2023-03-29T15:35:20;14.90;1.00
30234;DHT22;17046;52.074;4.748;2023-03-29T15:37:49;15.10;1.00
30234;DHT22;17046;52.074;4.748;2023-03-29T15:40:18;15.10;1.00
30234;DHT22;17046;52.074;4.748;2023-03-29T15:42:47;14.90;1.00
30234;DHT22;17046;52.074;4.748;2023-03-29T15:45:15;14.90;4.30
30234;DHT22;17046;52.074;4.748;2023-03-29T15:47:41;14.70;30.60
30234;DHT22;17046;52.074;4.748;2023-03-29T15:50:10;14.70;40.20
30234;DHT22;17046;52.074;4.748;2023-03-29T15:52:36;14.70;46.50
30234;DHT22;17046;52.074;4.748;2023-03-29T15:55:02;14.70;30.00
30234;DHT22;17046;52.074;4.748;2023-03-29T15:57:29;14.70;49.40
30234;DHT22;17046;52.074;4.748;2023-03-29T15:59:55;14.60;62.00
30234;DHT22;17046;52.074;4.748;2023-03-29T16:02:23;14.50;72.60
30234;DHT22;17046;52.074;4.748;2023-03-29T16:04:49;14.50;78.90
30234;DHT22;17046;52.074;4.748;2023-03-29T16:07:16;14.50;91.80
30234;DHT22;17046;52.074;4.748;2023-03-29T16:09:43;14.50;94.90
30234;DHT22;17046;52.074;4.748;2023-03-29T16:12:10;14.30;99.90
30234;DHT22;17046;52.074;4.748;2023-03-29T16:14:36;14.30;99.90
30234;DHT22;17046;52.074;4.748;2023-03-29T16:17:02;14.20;99.90
30234;DHT22;17046;52.074;4.748;2023-03-29T16:19:29;14.20;99.90
30234;DHT22;17046;52.074;4.748;2023-03-29T16:21:56;14.10;99.90
30234;DHT22;17046;52.074;4.748;2023-03-29T16:24:24;14.10;99.90
30234;DHT22;17046;52.074;4.748;2023-03-29T16:26:51;14.10;99.90
30234;DHT22;17046;52.074;4.748;2023-03-29T16:29:17;14.20;99.90
30234;DHT22;17046;52.074;4.748;2023-03-29T16:31:44;14.20;99.90
30234;DHT22;17046;52.074;4.748;2023-03-29T16:34:12;14.20;99.90
30234;DHT22;17046;52.074;4.748;2023-03-29T16:36:39;14.30;99.90
30234;DHT22;17046;52.074;4.748;2023-03-29T16:39:05;14.30;99.90
30234;DHT22;17046;52.074;4.748;2023-03-29T16:41:35;14.40;99.90
30234;DHT22;17046;52.074;4.748;2023-03-29T16:44:04;14.40;99.90
30234;DHT22;17046;52.074;4.748;2023-03-29T16:46:30;14.20;99.90
30234;DHT22;17046;52.074;4.748;2023-03-29T16:48:56;14.10;99.90
30234;DHT22;17046;52.074;4.748;2023-03-29T16:51:23;14.10;99.90
30234;DHT22;17046;52.074;4.748;2023-03-29T16:53:49;14.00;99.90
30234;DHT22;17046;52.074;4.748;2023-03-29T16:56:16;14.10;99.90
30234;DHT22;17046;52.074;4.748;2023-03-29T16:58:43;14.10;99.90
30234;DHT22;17046;52.074;4.748;2023-03-29T17:01:14;14.10;99.90
30234;DHT22;17046;52.074;4.748;2023-03-29T17:03:41;14.10;99.90
30234;DHT22;17046;52.074;4.748;2023-03-29T17:06:08;14.10;99.90
30234;DHT22;17046;52.074;4.748;2023-03-29T17:08:37;14.10;99.90
30234;DHT22;17046;52.074;4.748;2023-03-29T17:11:03;14.00;99.90
30234;DHT22;17046;52.074;4.748;2023-03-29T17:13:30;14.00;99.90
30234;DHT22;17046;52.074;4.748;2023-03-29T17:15:56;13.90;99.90
30234;DHT22;17046;52.074;4.748;2023-03-29T17:18:24;13.80;99.90
30234;DHT22;17046;52.074;4.748;2023-03-29T17:20:51;13.80;99.90
30234;DHT22;17046;52.074;4.748;2023-03-29T17:23:17;13.70;99.90
30234;DHT22;17046;52.074;4.748;2023-03-29T17:25:43;13.60;99.90
30234;DHT22;17046;52.074;4.748;2023-03-29T17:28:09;13.50;99.90
30234;DHT22;17046;52.074;4.748;2023-03-29T17:30:35;13.50;99.90
30234;DHT22;17046;52.074;4.748;2023-03-29T17:33:02;13.40;99.90
30234;DHT22;17046;52.074;4.748;2023-03-29T17:35:27;13.40;99.90
30234;DHT22;17046;52.074;4.748;2023-03-29T17:37:53;13.30;99.90
30234;DHT22;17046;52.074;4.748;2023-03-29T17:40:19;13.30;99.90
30234;DHT22;17046;52.074;4.748;2023-03-29T17:42:48;13.30;99.90
30234;DHT22;17046;52.074;4.748;2023-03-29T17:45:16;13.20;99.90
30234;DHT22;17046;52.074;4.748;2023-03-29T17:47:42;13.20;99.90
30234;DHT22;17046;52.074;4.748;2023-03-29T17:50:10;13.20;99.90
30234;DHT22;17046;52.074;4.748;2023-03-29T17:52:36;13.10;99.90
30234;DHT22;17046;52.074;4.748;2023-03-29T17:55:05;13.00;99.90
30234;DHT22;17046;52.074;4.748;2023-03-29T17:57:36;12.90;99.90